Time;durP1;ratioP1;P1;durP2;ratioP2;P2;SDS_P1;SDS_P2;PMS_P1;PMS_P2;Temp;Humidity;BMP_temperature;BMP_pressure;BME280_temperature;BME280_humidity;BME280_pressure;Samples;Min_cycle;Max_cycle;Signal;HPM_P1;HPM_P2
2021/01/04 00:00:51;;;;;;;8.85;7.55;;;2.60;99.90;;;;;;5027032;28;20177;-78
2021/01/04 00:03:35;;;;;;;8.02;7.25;;;2.60;99.90;;;;;;5042049;28;20193;-79
2021/01/04 00:06:19;;;;;;;11.52;7.53;;;2.60;99.90;;;;;;5029012;28;20213;-78
2021/01/04 00:09:10;;;;;;;8.32;7.53;;;2.60;99.90;;;;;;5011378;28;20235;-80
2021/01/04 00:11:42;;;;;;;9.50;7.93;;;2.60;99.90;;;;;;5010965;28;20680;-79
2021/01/04 00:14:42;;;;;;;10.15;8.45;;;2.60;99.90;;;;;;5035487;28;20205;-79
2021/01/04 00:17:36;;;;;;;8.40;7.25;;;2.60;99.90;;;;;;5033569;28;20208;-78
2021/01/04 00:20:26;;;;;;;10.45;8.15;;;2.60;99.90;;;;;;5048316;28;20192;-78
2021/01/04 00:23:18;;;;;;;8.88;7.80;;;2.70;99.90;;;;;;5045485;28;20240;-79
2021/01/04 00:25:56;;;;;;;10.23;7.28;;;2.60;99.90;;;;;;5031925;28;20176;-79
2021/01/04 00:28:26;;;;;;;8.70;7.28;;;2.60;99.90;;;;;;5034675;28;20153;-78
2021/01/04 00:31:03;;;;;;;10.73;8.27;;;2.60;99.90;;;;;;5028735;28;20685;-77
2021/01/04 00:33:32;;;;;;;10.00;8.18;;;2.70;99.90;;;;;;5033914;28;20598;-78
2021/01/04 00:36:01;;;;;;;8.68;7.78;;;2.60;99.90;;;;;;5036869;28;20291;-77
2021/01/04 00:38:58;;;;;;;8.63;7.68;;;2.60;99.90;;;;;;5035753;28;20171;-78
2021/01/04 00:41:49;;;;;;;9.38;8.00;;;2.60;99.90;;;;;;5043328;28;20200;-79
2021/01/04 00:44:32;;;;;;;11.85;7.78;;;2.70;99.90;;;;;;5006548;28;20284;-78
2021/01/04 00:47:06;;;;;;;8.00;7.03;;;2.60;99.90;;;;;;5028116;28;20723;-78
2021/01/04 00:49:33;;;;;;;8.73;7.30;;;2.60;99.90;;;;;;5028836;28;20219;-79
2021/01/04 00:52:23;;;;;;;9.15;7.22;;;2.60;99.90;;;;;;5037916;28;20310;-79
2021/01/04 00:55:04;;;;;;;8.73;7.82;;;2.60;99.90;;;;;;5018207;28;20169;-78
2021/01/04 00:57:39;;;;;;;8.38;7.57;;;2.60;99.90;;;;;;5035059;28;20214;-79
2021/01/04 01:00:37;;;;;;;9.85;7.72;;;2.60;99.90;;;;;;5037307;28;20235;-79
2021/01/04 01:03:03;;;;;;;10.68;7.78;;;2.60;99.90;;;;;;5028201;28;20249;-79
2021/01/04 01:06:10;;;;;;;7.93;7.13;;;2.60;99.90;;;;;;5032660;28;20663;-79
2021/01/04 01:08:39;;;;;;;7.80;7.00;;;2.60;99.90;;;;;;5019389;28;20244;-77
2021/01/04 01:11:16;;;;;;;8.27;7.47;;;2.60;99.90;;;;;;5027746;28;20198;-78
2021/01/04 01:13:53;;;;;;;8.18;7.38;;;2.60;99.90;;;;;;5046155;28;20192;-78
2021/01/04 01:17:02;;;;;;;11.77;8.18;;;2.60;99.90;;;;;;5033894;28;20670;-78
2021/01/04 01:19:40;;;;;;;8.60;7.25;;;2.60;99.90;;;;;;5032487;28;20287;-77
2021/01/04 01:22:11;;;;;;;8.27;6.80;;;2.50;99.90;;;;;;5032473;28;20698;-79
2021/01/04 01:24:36;;;;;;;9.32;7.30;;;2.50;99.90;;;;;;5031299;28;20248;-79
2021/01/04 01:27:28;;;;;;;9.40;7.53;;;2.60;99.90;;;;;;5021887;28;20291;-78
2021/01/04 01:29:53;;;;;;;8.13;7.32;;;2.60;99.90;;;;;;5010730;28;20177;-79
2021/01/04 01:32:43;;;;;;;7.77;7.10;;;2.60;99.90;;;;;;5037248;28;20201;-79
2021/01/04 01:35:36;;;;;;;8.32;7.50;;;2.60;99.90;;;;;;5019344;28;20173;-80
2021/01/04 01:38:20;;;;;;;8.30;6.57;;;2.50;99.90;;;;;;5028969;28;20209;-79
2021/01/04 01:41:32;;;;;;;8.00;7.03;;;2.50;99.90;;;;;;5031173;28;20555;-79
2021/01/04 01:44:08;;;;;;;8.60;6.15;;;2.50;99.90;;;;;;5021502;28;20600;-79
2021/01/04 01:46:46;;;;;;;8.00;7.20;;;2.50;99.90;;;;;;5027443;28;20287;-79
2021/01/04 01:49:30;;;;;;;9.60;7.45;;;2.50;99.90;;;;;;5033623;28;20508;-79
2021/01/04 01:52:30;;;;;;;7.43;6.70;;;2.50;99.90;;;;;;5028155;28;20251;-80
2021/01/04 01:55:07;;;;;;;9.05;7.43;;;2.50;99.90;;;;;;5035859;28;20408;-77
2021/01/04 01:57:42;;;;;;;6.93;6.22;;;2.50;99.90;;;;;;5026203;28;20204;-78
2021/01/04 02:00:11;;;;;;;7.82;7.03;;;2.40;99.90;;;;;;5043440;28;20436;-78
2021/01/04 02:02:49;;;;;;;7.82;7.03;;;2.40;99.90;;;;;;5027796;28;20209;-79
2021/01/04 02:05:27;;;;;;;8.35;6.72;;;2.40;99.90;;;;;;5047381;28;20196;-78
2021/01/04 02:07:52;;;;;;;8.40;7.35;;;2.40;99.90;;;;;;5039258;28;21355;-77
2021/01/04 02:10:27;;;;;;;9.37;7.53;;;2.40;99.90;;;;;;5045892;28;20173;-78
2021/01/04 02:13:19;;;;;;;9.40;7.60;;;2.40;99.90;;;;;;5041292;28;20231;-77
2021/01/04 02:15:59;;;;;;;6.25;5.65;;;2.40;99.90;;;;;;5039927;28;20181;-77
2021/01/04 02:18:40;;;;;;;7.63;6.68;;;2.40;99.90;;;;;;5040610;28;20180;-77
2021/01/04 02:21:34;;;;;;;9.18;6.40;;;2.40;99.90;;;;;;5038072;28;20209;-78
2021/01/04 02:24:28;;;;;;;8.23;7.43;;;2.40;99.90;;;;;;5042072;28;20254;-77
2021/01/04 02:27:21;;;;;;;8.07;7.28;;;2.40;99.90;;;;;;5042275;28;20208;-79
2021/01/04 02:29:47;;;;;;;8.27;7.30;;;2.40;99.90;;;;;;5042198;28;20253;-78
2021/01/04 02:32:13;;;;;;;7.23;6.53;;;2.40;99.90;;;;;;5031312;28;20320;-79
2021/01/04 02:34:43;;;;;;;6.57;5.80;;;2.40;99.90;;;;;;5013827;28;20426;-79
2021/01/04 02:37:12;;;;;;;8.52;6.70;;;2.40;99.90;;;;;;5043489;28;20218;-78
2021/01/04 02:40:04;;;;;;;8.27;6.93;;;2.40;99.90;;;;;;5033860;28;20194;-79
2021/01/04 02:42:34;;;;;;;8.02;6.63;;;2.40;99.90;;;;;;5039581;28;20216;-79
2021/01/04 02:45:13;;;;;;;7.07;6.38;;;2.40;99.90;;;;;;5031048;28;20634;-79
2021/01/04 02:48:10;;;;;;;6.07;5.47;;;2.40;99.90;;;;;;5039176;28;20765;-79
2021/01/04 02:50:56;;;;;;;8.32;6.55;;;2.40;99.90;;;;;;5034399;28;20659;-78
2021/01/04 02:53:58;;;;;;;10.15;7.50;;;2.40;99.90;;;;;;5050777;28;20185;-78
2021/01/04 02:56:47;;;;;;;6.70;5.95;;;2.40;99.90;;;;;;5049730;28;20200;-79
2021/01/04 02:59:51;;;;;;;6.63;5.65;;;2.40;99.90;;;;;;5035693;28;20197;-79
2021/01/04 03:02:36;;;;;;;7.78;6.97;;;2.40;99.90;;;;;;5011454;28;20643;-78
2021/01/04 03:05:05;;;;;;;7.95;6.68;;;2.40;99.90;;;;;;5020463;28;20504;-79
2021/01/04 03:07:35;;;;;;;7.22;6.45;;;2.40;99.90;;;;;;5034113;28;20241;-78
2021/01/04 03:10:19;;;;;;;6.55;5.90;;;2.40;99.90;;;;;;5045720;28;20181;-78
2021/01/04 03:12:57;;;;;;;8.13;6.13;;;2.40;99.90;;;;;;5025842;28;20306;-78
2021/01/04 03:15:42;;;;;;;8.05;6.30;;;2.40;99.90;;;;;;5033931;28;20201;-78
2021/01/04 03:18:37;;;;;;;7.25;5.85;;;2.40;99.90;;;;;;5047156;28;20201;-78
2021/01/04 03:21:05;;;;;;;6.45;5.45;;;2.30;99.90;;;;;;5030616;28;20248;-78
2021/01/04 03:23:32;;;;;;;8.60;6.80;;;2.30;99.90;;;;;;5041031;28;20232;-78
2021/01/04 03:26:06;;;;;;;7.30;6.20;;;2.30;99.90;;;;;;5041101;28;20217;-79
2021/01/04 03:28:32;;;;;;;5.78;5.10;;;2.30;99.90;;;;;;5036036;28;20449;-78
2021/01/04 03:30:59;;;;;;;6.50;5.90;;;2.30;99.90;;;;;;5052289;28;20732;-78
2021/01/04 03:33:25;;;;;;;6.95;6.25;;;2.30;99.90;;;;;;5037611;28;20275;-79
2021/01/04 03:35:51;;;;;;;7.27;6.27;;;2.40;99.90;;;;;;5040776;28;20232;-78
2021/01/04 03:38:18;;;;;;;6.72;6.00;;;2.40;99.90;;;;;;5041112;28;20640;-78
2021/01/04 03:40:44;;;;;;;6.50;5.72;;;2.40;99.90;;;;;;5032872;28;20201;-78
2021/01/04 03:43:10;;;;;;;10.52;6.22;;;2.40;99.90;;;;;;5045982;28;20188;-79
2021/01/04 03:45:36;;;;;;;6.15;5.57;;;2.40;99.90;;;;;;5044053;28;20247;-79
2021/01/04 03:48:03;;;;;;;6.50;5.90;;;2.40;99.90;;;;;;5040554;28;20265;-79
2021/01/04 03:50:28;;;;;;;5.32;4.85;;;2.40;99.90;;;;;;5015401;28;20768;-78
2021/01/04 03:52:54;;;;;;;6.83;6.13;;;2.40;99.90;;;;;;5051057;28;20219;-79
2021/01/04 03:55:20;;;;;;;6.63;5.70;;;2.30;99.90;;;;;;5020661;28;20184;-78
2021/01/04 03:57:46;;;;;;;7.80;6.57;;;2.30;99.90;;;;;;5045641;28;20243;-78
2021/01/04 04:00:14;;;;;;;7.00;5.93;;;2.40;99.90;;;;;;5033112;28;20660;-78
2021/01/04 04:02:41;;;;;;;7.47;6.70;;;2.30;99.90;;;;;;5048292;28;20228;-79
2021/01/04 04:05:08;;;;;;;6.60;5.38;;;2.30;99.90;;;;;;5048030;28;20169;-78
2021/01/04 04:07:34;;;;;;;7.05;6.22;;;2.30;99.90;;;;;;5050951;28;20629;-77
2021/01/04 04:10:00;;;;;;;8.20;5.85;;;2.40;99.90;;;;;;5051557;28;20208;-78
2021/01/04 04:12:26;;;;;;;7.32;6.63;;;2.40;99.90;;;;;;5020756;28;20235;-79
2021/01/04 04:14:52;;;;;;;7.17;5.83;;;2.40;99.90;;;;;;5041336;28;20229;-79
2021/01/04 04:17:18;;;;;;;6.17;5.57;;;2.30;99.90;;;;;;5041023;28;20215;-78
2021/01/04 04:19:46;;;;;;;6.25;5.65;;;2.30;99.90;;;;;;5050740;28;20551;-78
2021/01/04 04:22:11;;;;;;;6.47;5.57;;;2.30;99.90;;;;;;5036962;28;20671;-79
2021/01/04 04:24:44;;;;;;;6.13;5.40;;;2.40;99.90;;;;;;5025816;28;20485;-79
2021/01/04 04:27:11;;;;;;;6.20;5.00;;;2.40;99.90;;;;;;5032029;28;20455;-78
2021/01/04 04:29:37;;;;;;;6.97;6.28;;;2.40;99.90;;;;;;5048917;28;20173;-79
2021/01/04 04:32:04;;;;;;;6.85;5.93;;;2.40;99.90;;;;;;5042503;28;20201;-78
2021/01/04 04:34:29;;;;;;;6.25;5.65;;;2.40;99.90;;;;;;5043904;28;20472;-78
2021/01/04 04:36:55;;;;;;;7.73;6.97;;;2.40;99.90;;;;;;5034239;28;20317;-79
2021/01/04 04:39:21;;;;;;;7.47;6.70;;;2.30;99.90;;;;;;5037449;28;20203;-80
2021/01/04 04:41:49;;;;;;;7.87;7.00;;;2.30;99.90;;;;;;5033886;28;20432;-79
2021/01/04 04:44:32;;;;;;;7.75;6.40;;;2.40;99.90;;;;;;5046034;28;20651;-78
2021/01/04 04:47:16;;;;;;;6.43;5.75;;;2.40;99.90;;;;;;5039272;28;20663;-78
2021/01/04 04:50:09;;;;;;;7.78;6.72;;;2.40;99.90;;;;;;5040805;28;20196;-78
2021/01/04 04:53:25;;;;;;;8.27;7.47;;;2.40;99.90;;;;;;5034572;28;20205;-79
2021/01/04 04:55:56;;;;;;;7.28;6.57;;;2.30;99.90;;;;;;5005383;28;20583;-80
2021/01/04 04:58:31;;;;;;;8.02;7.22;;;2.30;99.90;;;;;;5038019;28;20165;-78
2021/01/04 05:01:09;;;;;;;8.23;6.43;;;2.30;99.90;;;;;;5045498;28;20732;-78
2021/01/04 05:03:56;;;;;;;9.50;6.80;;;2.30;99.90;;;;;;5031767;28;20196;-78
2021/01/04 05:06:40;;;;;;;8.75;7.05;;;2.30;99.90;;;;;;5046980;28;20200;-79
2021/01/04 05:09:27;;;;;;;7.55;6.75;;;2.30;99.90;;;;;;5039065;28;20180;-78
2021/01/04 05:12:33;;;;;;;9.27;6.40;;;2.30;99.90;;;;;;5013753;28;20263;-78
2021/01/04 05:15:10;;;;;;;6.90;6.13;;;2.30;99.90;;;;;;5013993;28;20619;-79
2021/01/04 05:17:42;;;;;;;9.00;7.38;;;2.30;99.90;;;;;;5031122;28;20588;-78
2021/01/04 05:20:33;;;;;;;7.80;6.95;;;2.30;99.90;;;;;;5030757;28;20291;-79
2021/01/04 05:23:30;;;;;;;13.50;7.80;;;2.30;99.90;;;;;;5042232;28;20200;-79
2021/01/04 05:26:05;;;;;;;10.15;8.07;;;2.30;99.90;;;;;;5017796;28;20205;-78
2021/01/04 05:28:44;;;;;;;8.80;7.13;;;2.30;99.90;;;;;;5031360;28;20528;-79
2021/01/04 05:31:37;;;;;;;8.77;7.03;;;2.30;99.90;;;;;;5031319;28;20200;-79
2021/01/04 05:34:34;;;;;;;8.32;6.97;;;2.30;99.90;;;;;;5042835;28;20188;-78
2021/01/04 05:37:42;;;;;;;9.30;7.78;;;2.30;99.90;;;;;;5039561;28;20211;-79
2021/01/04 05:40:31;;;;;;;9.32;6.28;;;2.30;99.90;;;;;;5031790;28;20197;-79
2021/01/04 05:43:08;;;;;;;7.65;6.82;;;2.30;99.90;;;;;;5034007;28;20280;-78
2021/01/04 05:45:46;;;;;;;9.27;7.75;;;2.30;99.90;;;;;;5053319;28;20237;-78
2021/01/04 05:48:27;;;;;;;12.20;8.85;;;2.40;99.90;;;;;;5054804;28;20176;-79
2021/01/04 05:51:14;;;;;;;8.95;6.95;;;2.30;99.90;;;;;;5034922;28;20216;-78
2021/01/04 05:53:42;;;;;;;12.57;8.82;;;2.30;99.90;;;;;;5035781;28;20201;-78
2021/01/04 05:56:08;;;;;;;11.77;7.95;;;2.30;99.90;;;;;;5033918;28;20205;-79
2021/01/04 05:58:35;;;;;;;10.77;8.77;;;2.30;99.90;;;;;;5048067;28;20240;-78
2021/01/04 06:01:13;;;;;;;9.05;7.95;;;2.30;99.90;;;;;;5045115;28;20443;-78
2021/01/04 06:03:38;;;;;;;9.48;8.35;;;2.20;99.90;;;;;;5027719;28;20184;-79
2021/01/04 06:06:27;;;;;;;8.60;7.80;;;2.30;99.90;;;;;;5040391;28;20274;-79
2021/01/04 06:09:04;;;;;;;11.05;8.90;;;2.30;99.90;;;;;;5053509;28;20184;-78
2021/01/04 06:11:30;;;;;;;10.05;7.68;;;2.30;99.90;;;;;;5045974;28;20209;-78
2021/01/04 06:14:02;;;;;;;9.13;8.20;;;2.30;99.90;;;;;;5034763;28;20193;-78
2021/01/04 06:16:28;;;;;;;11.45;8.75;;;2.30;99.90;;;;;;5050072;28;20231;-79
2021/01/04 06:18:57;;;;;;;9.53;7.53;;;2.30;99.90;;;;;;5019145;28;20489;-79
2021/01/04 06:21:41;;;;;;;8.95;8.02;;;2.30;99.90;;;;;;5035975;28;20200;-78
2021/01/04 06:24:09;;;;;;;9.90;7.30;;;2.30;99.90;;;;;;5039541;28;20189;-79
2021/01/04 06:26:34;;;;;;;9.85;7.85;;;2.30;99.90;;;;;;5033242;28;20205;-78
2021/01/04 06:29:04;;;;;;;11.00;7.70;;;2.30;99.90;;;;;;5033801;28;20471;-78
2021/01/04 06:31:43;;;;;;;8.73;7.82;;;2.30;99.90;;;;;;5040820;28;20482;-78
2021/01/04 06:34:25;;;;;;;10.85;8.60;;;2.30;99.90;;;;;;5049014;28;20285;-78
2021/01/04 06:36:58;;;;;;;8.85;7.95;;;2.30;99.90;;;;;;5025141;28;20204;-79
2021/01/04 06:39:31;;;;;;;8.98;7.40;;;2.30;99.90;;;;;;5045195;28;20196;-78
2021/01/04 06:42:15;;;;;;;9.73;7.55;;;2.30;99.90;;;;;;5041737;28;20220;-79
2021/01/04 06:44:46;;;;;;;9.95;7.85;;;2.30;99.90;;;;;;5041805;28;20172;-79
2021/01/04 06:47:34;;;;;;;10.18;8.18;;;2.30;99.90;;;;;;5029551;28;20205;-79
2021/01/04 06:50:26;;;;;;;8.02;7.15;;;2.30;99.90;;;;;;5033685;28;20599;-78
2021/01/04 06:53:13;;;;;;;8.68;6.05;;;2.30;99.90;;;;;;5051349;28;20694;-79
2021/01/04 06:56:12;;;;;;;9.60;7.45;;;2.30;99.90;;;;;;5034751;28;20609;-78
2021/01/04 06:58:53;;;;;;;9.25;7.40;;;2.30;99.90;;;;;;5034148;28;20642;-78
2021/01/04 07:01:37;;;;;;;8.30;6.50;;;2.30;99.90;;;;;;5021098;28;20287;-78
2021/01/04 07:04:24;;;;;;;8.88;7.60;;;2.20;99.90;;;;;;5032858;28;20188;-79
2021/01/04 07:07:19;;;;;;;10.43;8.40;;;2.20;99.90;;;;;;5045682;28;20293;-78
2021/01/04 07:09:57;;;;;;;8.82;7.55;;;2.20;99.90;;;;;;5026060;28;20659;-79
2021/01/04 07:12:35;;;;;;;10.00;7.55;;;2.20;99.90;;;;;;5025502;28;20251;-78
2021/01/04 07:15:28;;;;;;;9.48;7.30;;;2.30;99.90;;;;;;5041554;28;20177;-78
2021/01/04 07:18:02;;;;;;;11.70;7.78;;;2.30;99.90;;;;;;5051214;28;20272;-79
2021/01/04 07:20:28;;;;;;;8.60;7.43;;;2.20;99.90;;;;;;5048042;28;20192;-78
2021/01/04 07:22:53;;;;;;;10.50;7.03;;;2.20;99.90;;;;;;5047709;28;20220;-78
2021/01/04 07:25:38;;;;;;;8.60;7.37;;;2.20;99.90;;;;;;5025676;28;20169;-79
2021/01/04 07:28:25;;;;;;;7.88;7.07;;;2.30;99.90;;;;;;5032987;28;20197;-78
2021/01/04 07:31:05;;;;;;;7.20;6.32;;;2.20;99.90;;;;;;5008296;28;20296;-78
2021/01/04 07:33:54;;;;;;;8.18;6.32;;;2.30;99.90;;;;;;5033171;28;20209;-79
2021/01/04 07:36:58;;;;;;;8.15;6.03;;;2.20;99.90;;;;;;5043681;28;20254;-78
2021/01/04 07:39:48;;;;;;;7.90;6.80;;;2.30;99.90;;;;;;5047684;28;20192;-78
2021/01/04 07:42:38;;;;;;;8.25;7.47;;;2.30;99.90;;;;;;5028976;28;20757;-78
2021/01/04 07:45:11;;;;;;;6.28;5.45;;;2.30;99.90;;;;;;5041674;28;20640;-78
2021/01/04 07:48:06;;;;;;;7.57;6.20;;;2.30;99.90;;;;;;5048439;28;20203;-77
2021/01/04 07:51:02;;;;;;;7.30;6.50;;;2.30;99.90;;;;;;5042465;28;20188;-78
2021/01/04 07:54:06;;;;;;;7.00;6.28;;;2.30;99.90;;;;;;5034759;28;20211;-78
2021/01/04 07:56:56;;;;;;;8.77;6.80;;;2.30;99.90;;;;;;5043266;28;20196;-78
2021/01/04 07:59:40;;;;;;;8.65;7.05;;;2.30;99.90;;;;;;5025356;28;20197;-79
2021/01/04 08:02:44;;;;;;;7.00;6.00;;;2.30;99.90;;;;;;5014144;28;20209;-78
2021/01/04 08:05:37;;;;;;;7.45;5.90;;;2.30;99.90;;;;;;4981380;28;20403;-77
2021/01/04 08:08:06;;;;;;;7.30;5.68;;;2.30;99.90;;;;;;5007677;28;20209;-78
2021/01/04 08:10:51;;;;;;;8.68;7.05;;;2.30;99.90;;;;;;5033724;28;20247;-78
2021/01/04 08:13:50;;;;;;;8.43;6.80;;;2.30;99.90;;;;;;5049750;28;20862;-78
2021/01/04 08:16:27;;;;;;;8.13;7.00;;;2.40;99.90;;;;;;5044740;28;20223;-78
2021/01/04 08:19:01;;;;;;;7.97;6.90;;;2.40;99.90;;;;;;5042342;28;20168;-79
2021/01/04 08:22:04;;;;;;;7.78;5.95;;;2.30;99.90;;;;;;5041155;28;20201;-78
2021/01/04 08:24:39;;;;;;;9.73;7.45;;;2.40;99.90;;;;;;5037811;28;20190;-77
2021/01/04 08:27:20;;;;;;;8.60;7.03;;;2.40;99.90;;;;;;5037185;28;20234;-78
2021/01/04 08:29:46;;;;;;;7.47;6.47;;;2.30;99.90;;;;;;5032966;28;20675;-77
2021/01/04 08:33:05;;;;;;;8.23;6.80;;;2.30;99.90;;;;;;5038804;28;20219;-79
2021/01/04 08:35:41;;;;;;;7.40;6.22;;;2.30;99.90;;;;;;5021650;28;20438;-78
2021/01/04 08:38:18;;;;;;;10.07;6.15;;;2.40;99.90;;;;;;5042666;28;20168;-78
2021/01/04 08:41:28;;;;;;;8.25;7.18;;;2.30;99.90;;;;;;5041236;28;20323;-78
2021/01/04 08:43:54;;;;;;;8.10;6.10;;;2.40;99.90;;;;;;5038943;28;20197;-78
2021/01/04 08:46:23;;;;;;;7.37;5.93;;;2.50;99.90;;;;;;5027161;28;20267;-77
2021/01/04 08:48:50;;;;;;;7.63;6.35;;;2.40;99.90;;;;;;5034695;28;20945;-78
2021/01/04 08:51:31;;;;;;;6.60;6.00;;;2.40;99.90;;;;;;5020818;28;20220;-78
2021/01/04 08:54:00;;;;;;;7.57;6.65;;;2.40;99.90;;;;;;5046738;28;20180;-78
2021/01/04 08:56:33;;;;;;;8.18;7.35;;;2.40;99.90;;;;;;5039998;28;20283;-78
2021/01/04 08:59:14;;;;;;;7.43;6.35;;;2.40;99.90;;;;;;5022004;28;20169;-78
2021/01/04 09:01:56;;;;;;;8.23;7.05;;;2.50;99.90;;;;;;5021898;28;20634;-77
2021/01/04 09:04:35;;;;;;;9.20;7.15;;;2.50;99.90;;;;;;5045259;28;20238;-78
2021/01/04 09:07:24;;;;;;;9.68;7.20;;;2.50;99.90;;;;;;5039115;28;20208;-78
2021/01/04 09:09:59;;;;;;;7.72;6.32;;;2.50;99.90;;;;;;5033167;28;20639;-77
2021/01/04 09:12:47;;;;;;;9.55;7.30;;;2.50;99.90;;;;;;5032099;28;20283;-78
2021/01/04 09:15:19;;;;;;;10.30;7.28;;;2.60;99.90;;;;;;5044155;28;20172;-77
2021/01/04 09:17:59;;;;;;;8.48;7.57;;;2.60;99.90;;;;;;5038434;28;20228;-78
2021/01/04 09:20:46;;;;;;;8.05;7.25;;;2.60;99.90;;;;;;5039424;28;20662;-77
2021/01/04 09:23:24;;;;;;;8.20;6.38;;;2.60;99.90;;;;;;5042561;28;20247;-78
2021/01/04 09:25:58;;;;;;;9.68;6.93;;;2.60;99.90;;;;;;5043656;28;20168;-77
2021/01/04 09:28:24;;;;;;;9.18;7.60;;;2.60;99.90;;;;;;5049558;28;20226;-77
2021/01/04 09:30:51;;;;;;;8.65;7.13;;;2.60;99.90;;;;;;5048479;28;20172;-77
2021/01/04 09:33:20;;;;;;;9.93;7.60;;;2.60;99.90;;;;;;5031641;28;20192;-78
2021/01/04 09:35:49;;;;;;;10.25;8.13;;;2.70;99.90;;;;;;5038329;28;20181;-77
2021/01/04 09:38:18;;;;;;;11.50;8.82;;;2.70;99.90;;;;;;5044223;28;20229;-76
2021/01/04 09:40:49;;;;;;;10.73;7.55;;;2.70;99.90;;;;;;5049192;28;20974;-78
2021/01/04 09:43:19;;;;;;;10.85;7.82;;;2.70;99.90;;;;;;5034999;28;20189;-78
2021/01/04 09:45:44;;;;;;;9.20;8.25;;;2.70;99.90;;;;;;5035813;28;20169;-78
2021/01/04 09:48:24;;;;;;;9.57;7.97;;;2.70;99.90;;;;;;5042676;28;20164;-77
2021/01/04 09:53:35;;;;;;;13.00;7.85;;;2.70;99.90;;;;;;5045623;28;20219;-78
2021/01/04 09:56:07;;;;;;;13.35;8.30;;;2.70;99.90;;;;;;5055197;28;20327;-77
2021/01/04 09:58:32;;;;;;;9.98;8.13;;;2.70;99.90;;;;;;5032984;28;20259;-78
2021/01/04 10:01:09;;;;;;;10.63;9.10;;;2.70;99.90;;;;;;5061349;28;20339;-77
2021/01/04 10:03:35;;;;;;;9.32;7.63;;;2.80;99.90;;;;;;5068046;28;20204;-77
2021/01/04 10:06:05;;;;;;;10.40;8.30;;;2.80;99.90;;;;;;5057643;28;20618;-78
2021/01/04 10:08:31;;;;;;;10.52;8.40;;;2.70;99.90;;;;;;5035930;28;20260;-79
2021/01/04 10:10:59;;;;;;;11.48;8.57;;;2.80;99.90;;;;;;5035190;28;20222;-78
2021/01/04 10:13:26;;;;;;;9.43;8.10;;;2.80;99.90;;;;;;5050763;28;20586;-77
2021/01/04 10:15:54;;;;;;;11.90;9.00;;;2.90;99.90;;;;;;5063071;28;20339;-77
2021/01/04 10:18:52;;;;;;;9.88;8.18;;;2.80;99.90;;;;;;5047487;28;20179;-77
2021/01/04 10:21:25;;;;;;;9.98;8.82;;;2.80;99.90;;;;;;5054986;28;20203;-79
2021/01/04 10:24:15;;;;;;;12.82;8.57;;;2.90;99.90;;;;;;5064940;28;20558;-77
2021/01/04 10:26:43;;;;;;;9.65;8.20;;;2.80;99.90;;;;;;5050765;28;20218;-77
2021/01/04 10:29:13;;;;;;;11.63;9.13;;;2.80;99.90;;;;;;5041121;28;20172;-77
2021/01/04 10:31:39;;;;;;;13.38;10.10;;;2.80;99.90;;;;;;5053868;28;20208;-78
2021/01/04 10:34:18;;;;;;;10.90;9.80;;;2.80;99.90;;;;;;5054358;28;20199;-77
2021/01/04 10:36:52;;;;;;;11.65;9.23;;;2.90;99.90;;;;;;5053457;28;20213;-77
2021/01/04 10:39:28;;;;;;;11.60;9.25;;;2.80;99.90;;;;;;5067961;28;20203;-77
2021/01/04 10:42:04;;;;;;;12.52;9.73;;;2.80;99.90;;;;;;5045876;28;20231;-78
2021/01/04 10:44:31;;;;;;;13.48;11.18;;;2.80;99.90;;;;;;5040033;28;20172;-77
2021/01/04 10:47:14;;;;;;;12.18;9.88;;;2.80;99.90;;;;;;5055988;28;20320;-77
2021/01/04 10:49:40;;;;;;;10.57;8.95;;;2.80;99.90;;;;;;5068852;28;20183;-77
2021/01/04 10:52:17;;;;;;;13.23;10.10;;;2.80;99.90;;;;;;5049783;28;20216;-78
2021/01/04 10:54:43;;;;;;;12.50;9.75;;;2.80;99.90;;;;;;5064507;28;20522;-77
2021/01/04 10:57:18;;;;;;;14.77;10.25;;;2.90;99.90;;;;;;5061710;28;20207;-77
2021/01/04 11:00:02;;;;;;;13.93;10.70;;;2.90;99.90;;;;;;5050996;28;20250;-77
2021/01/04 11:02:46;;;;;;;11.45;10.00;;;2.90;99.90;;;;;;5051253;28;20702;-78
2021/01/04 11:05:14;;;;;;;13.40;9.63;;;2.90;99.90;;;;;;5040119;28;20643;-78
2021/01/04 11:07:40;;;;;;;12.57;10.40;;;2.90;99.90;;;;;;5061549;28;20207;-78
2021/01/04 11:10:29;;;;;;;12.80;9.90;;;2.90;99.90;;;;;;5059872;28;20185;-78
2021/01/04 11:12:58;;;;;;;10.40;9.00;;;2.90;99.90;;;;;;5065486;28;20496;-78
2021/01/04 11:15:30;;;;;;;11.65;10.45;;;2.90;99.90;;;;;;5059804;28;20179;-78
2021/01/04 11:18:07;;;;;;;11.57;10.38;;;2.90;99.90;;;;;;5071695;28;20645;-79
2021/01/04 11:20:34;;;;;;;11.52;10.32;;;2.90;99.90;;;;;;5053446;28;20235;-77
2021/01/04 11:23:22;;;;;;;13.70;10.25;;;2.90;99.90;;;;;;5053370;28;20544;-78
2021/01/04 11:25:48;;;;;;;15.00;11.48;;;2.90;99.90;;;;;;5048278;28;20172;-78
2021/01/04 11:28:15;;;;;;;13.00;10.13;;;2.90;99.90;;;;;;5051435;28;20172;-77
2021/01/04 11:30:40;;;;;;;12.82;10.90;;;2.90;99.90;;;;;;5052461;28;20259;-78
2021/01/04 11:33:06;;;;;;;12.23;10.43;;;2.90;99.90;;;;;;5094954;22;20304;-78
2021/01/04 11:35:32;;;;;;;12.53;10.43;;;3.00;99.90;;;;;;5060631;28;20214;-78
2021/01/04 11:37:59;;;;;;;15.52;11.15;;;2.90;99.90;;;;;;5060984;28;20534;-77
2021/01/04 11:40:26;;;;;;;11.52;10.32;;;2.90;99.90;;;;;;5054092;28;20195;-78
2021/01/04 11:42:52;;;;;;;13.18;10.77;;;2.90;99.90;;;;;;5063356;28;20209;-78
2021/01/04 11:45:20;;;;;;;15.33;12.10;;;3.00;99.90;;;;;;5063029;28;20172;-78
2021/01/04 11:47:47;;;;;;;14.45;10.38;;;3.00;99.90;;;;;;5067238;28;20465;-78
2021/01/04 11:50:24;;;;;;;11.75;9.50;;;3.00;99.90;;;;;;5068400;28;20172;-78
2021/01/04 11:52:54;;;;;;;13.38;10.93;;;3.00;99.90;;;;;;5051136;28;20237;-78
2021/01/04 11:55:24;;;;;;;13.88;11.20;;;2.90;99.90;;;;;;5038666;28;20180;-78
2021/01/04 11:57:51;;;;;;;12.68;11.32;;;2.90;99.90;;;;;;5039366;28;20224;-78
2021/01/04 12:00:19;;;;;;;14.07;11.85;;;2.90;99.90;;;;;;5039127;28;20608;-78
2021/01/04 12:02:45;;;;;;;14.32;11.60;;;2.90;99.90;;;;;;5061504;28;20238;-78
2021/01/04 12:05:14;;;;;;;12.23;11.00;;;2.90;99.90;;;;;;5063307;28;20207;-78
2021/01/04 12:07:46;;;;;;;14.13;10.95;;;2.90;99.90;;;;;;4995615;28;20248;-78
2021/01/04 12:10:19;;;;;;;12.90;10.65;;;2.90;99.90;;;;;;5039863;28;20177;-78
2021/01/04 12:12:45;;;;;;;15.73;11.90;;;2.90;99.90;;;;;;5033060;28;20243;-78
2021/01/04 12:15:12;;;;;;;14.87;10.67;;;2.90;99.90;;;;;;5033413;28;20177;-78
2021/01/04 12:17:38;;;;;;;13.88;11.48;;;2.90;99.90;;;;;;5038046;28;20210;-78
2021/01/04 12:20:06;;;;;;;12.85;10.45;;;2.90;99.90;;;;;;5067735;28;20706;-78
2021/01/04 12:22:32;;;;;;;13.13;11.73;;;2.90;99.90;;;;;;5053487;28;20224;-78
2021/01/04 12:24:58;;;;;;;14.67;10.80;;;2.90;99.90;;;;;;5052662;28;20172;-78
2021/01/04 12:27:24;;;;;;;12.63;11.27;;;2.90;99.90;;;;;;5062376;28;20200;-78
2021/01/04 12:29:50;;;;;;;13.85;11.02;;;2.90;99.90;;;;;;5069823;28;20179;-78
2021/01/04 12:32:18;;;;;;;11.93;10.67;;;2.90;99.90;;;;;;5043881;28;20683;-78
2021/01/04 12:34:44;;;;;;;14.32;12.20;;;2.90;99.90;;;;;;5042818;28;20426;-78
2021/01/04 12:37:10;;;;;;;16.30;10.60;;;2.90;99.90;;;;;;5053945;28;20212;-78
2021/01/04 12:39:40;;;;;;;11.73;9.77;;;2.90;99.90;;;;;;5044550;28;20701;-78
2021/01/04 12:42:06;;;;;;;11.77;9.43;;;2.90;99.90;;;;;;5057472;28;20588;-78
2021/01/04 12:44:31;;;;;;;12.57;10.88;;;2.90;99.90;;;;;;5068618;28;20175;-78
2021/01/04 12:46:58;;;;;;;10.90;9.80;;;2.90;99.90;;;;;;5058801;28;20204;-78
2021/01/04 12:49:25;;;;;;;13.30;10.15;;;2.90;99.90;;;;;;5061010;28;20665;-78
2021/01/04 12:52:10;;;;;;;16.10;12.20;;;2.90;99.90;;;;;;5067080;28;20216;-77
2021/01/04 12:54:37;;;;;;;13.52;10.75;;;2.80;99.90;;;;;;5051956;28;20179;-78
2021/01/04 12:57:09;;;;;;;12.87;10.47;;;2.80;99.90;;;;;;5068834;28;20200;-78
2021/01/04 12:59:38;;;;;;;13.00;10.13;;;2.90;99.90;;;;;;5058216;28;20191;-78
2021/01/04 13:02:05;;;;;;;11.63;10.02;;;2.90;99.90;;;;;;5020111;28;20210;-78
2021/01/04 13:04:46;;;;;;;12.90;9.95;;;2.80;99.90;;;;;;5049980;28;20200;-78
2021/01/04 13:07:41;;;;;;;14.15;12.43;;;2.90;99.90;;;;;;5015526;28;20197;-77
2021/01/04 13:10:08;;;;;;;12.70;10.88;;;2.90;99.90;;;;;;5014125;28;20180;-78
2021/01/04 13:12:34;;;;;;;11.80;10.60;;;2.90;99.90;;;;;;5062425;28;20215;-78
2021/01/04 13:15:00;;;;;;;14.70;10.85;;;2.80;99.90;;;;;;5036451;28;20198;-78
2021/01/04 13:17:30;;;;;;;16.17;11.90;;;2.80;99.90;;;;;;5034216;28;20212;-79
2021/01/04 13:19:55;;;;;;;16.63;12.10;;;2.90;99.90;;;;;;5057682;28;20422;-78
2021/01/04 13:22:36;;;;;;;11.10;9.63;;;2.80;99.90;;;;;;5033605;28;20239;-78
2021/01/04 13:25:19;;;;;;;14.32;9.90;;;2.90;99.90;;;;;;5050687;28;20164;-77
2021/01/04 13:27:47;;;;;;;12.35;10.30;;;2.80;99.90;;;;;;5041422;28;20750;-78
2021/01/04 13:30:13;;;;;;;12.25;9.10;;;2.80;99.90;;;;;;5046033;28;20180;-78
2021/01/04 13:32:39;;;;;;;11.48;9.20;;;2.80;99.90;;;;;;5028424;28;20232;-77
2021/01/04 13:35:05;;;;;;;13.67;11.20;;;2.90;99.90;;;;;;5061580;28;20553;-77
2021/01/04 13:37:36;;;;;;;13.50;10.90;;;2.90;99.90;;;;;;5050199;28;20215;-77
2021/01/04 13:40:03;;;;;;;11.93;9.85;;;2.90;99.90;;;;;;5035937;28;20286;-78
2021/01/04 13:42:29;;;;;;;14.77;10.75;;;2.80;99.90;;;;;;5049738;28;20288;-78